Time;durP1;ratioP1;P1;durP2;ratioP2;P2;SDS_P1;SDS_P2;PMS_P1;PMS_P2;Temp;Humidity;BMP_temperature;BMP_pressure;BME280_temperature;BME280_humidity;BME280_pressure;Samples;Min_cycle;Max_cycle;Signal;HPM_P1;HPM_P2
2021/12/29 00:01:20;;;;;;;67.27;24.90;;;-4.60;99.90;;;;;;5092283;28;20348;-61
2021/12/29 00:03:46;;;;;;;62.37;24.80;;;-4.60;99.90;;;;;;5091036;28;20631;-61
2021/12/29 00:06:12;;;;;;;61.20;24.67;;;-4.60;99.90;;;;;;5092310;28;20205;-61
2021/12/29 00:08:38;;;;;;;59.43;22.53;;;-4.60;99.90;;;;;;5092095;28;20184;-60
2021/12/29 00:11:04;;;;;;;63.30;24.33;;;-4.60;99.90;;;;;;5091758;28;20252;-60
2021/12/29 00:13:30;;;;;;;55.47;23.63;;;-4.50;99.90;;;;;;5091367;28;20678;-60
2021/12/29 00:15:58;;;;;;;68.67;26.37;;;-4.50;99.90;;;;;;5091966;28;20238;-61
2021/12/29 00:18:34;;;;;;;62.67;25.33;;;-4.60;99.90;;;;;;5091832;28;20624;-62
2021/12/29 00:21:02;;;;;;;76.27;27.57;;;-4.60;99.90;;;;;;5092224;28;20179;-60
2021/12/29 00:23:28;;;;;;;65.70;27.13;;;-4.60;99.90;;;;;;5091478;28;20679;-61
2021/12/29 00:25:54;;;;;;;65.00;25.33;;;-4.60;99.90;;;;;;5091592;28;20289;-61
2021/12/29 00:28:20;;;;;;;71.20;28.10;;;-4.60;99.90;;;;;;5092156;28;20180;-60
2021/12/29 00:30:46;;;;;;;65.43;25.53;;;-4.60;99.90;;;;;;5091311;28;20185;-60
2021/12/29 00:33:12;;;;;;;70.00;25.10;;;-4.60;99.90;;;;;;5091854;28;20185;-61
2021/12/29 00:35:41;;;;;;;67.53;24.77;;;-4.60;99.90;;;;;;5091774;28;20215;-61
2021/12/29 00:38:09;;;;;;;70.53;27.00;;;-4.60;99.90;;;;;;5092053;28;20212;-60
2021/12/29 00:40:36;;;;;;;68.83;25.70;;;-4.60;99.90;;;;;;5091292;28;20187;-62
2021/12/29 00:43:03;;;;;;;58.27;23.10;;;-4.60;99.90;;;;;;5091791;28;20266;-61
2021/12/29 00:45:32;;;;;;;58.23;24.53;;;-4.60;99.90;;;;;;5091604;28;20184;-60
2021/12/29 00:47:58;;;;;;;52.90;21.77;;;-4.60;99.90;;;;;;5095412;28;20185;-59
2021/12/29 00:50:24;;;;;;;60.40;23.53;;;-4.60;99.90;;;;;;5089794;28;20192;-62
2021/12/29 00:52:50;;;;;;;57.23;22.10;;;-4.60;99.90;;;;;;5075734;28;20654;-61
2021/12/29 00:55:17;;;;;;;57.33;21.50;;;-4.60;99.90;;;;;;5092607;28;20213;-61
2021/12/29 00:57:43;;;;;;;67.00;22.03;;;-4.70;99.90;;;;;;5095432;28;20265;-61
2021/12/29 01:00:14;;;;;;;59.33;20.37;;;-4.70;99.90;;;;;;5095927;28;20196;-60
2021/12/29 01:02:40;;;;;;;57.17;21.40;;;-4.70;99.90;;;;;;5095564;28;20256;-60
2021/12/29 01:05:09;;;;;;;61.87;22.83;;;-4.70;99.90;;;;;;5095605;28;20318;-60
2021/12/29 01:07:36;;;;;;;54.93;20.87;;;-4.70;99.90;;;;;;5095184;28;20182;-61
2021/12/29 01:10:06;;;;;;;78.77;26.97;;;-4.60;99.90;;;;;;5095412;28;20664;-60
2021/12/29 01:12:32;;;;;;;75.40;31.80;;;-4.40;99.90;;;;;;5094600;28;20211;-60
2021/12/29 01:14:58;;;;;;;45.90;18.60;;;-4.20;99.90;;;;;;5095364;28;20666;-62
2021/12/29 01:17:25;;;;;;;44.97;18.43;;;-4.30;99.90;;;;;;5094973;28;20278;-61
2021/12/29 01:19:53;;;;;;;34.97;14.07;;;-4.50;99.90;;;;;;5095424;28;20187;-61
2021/12/29 01:22:20;;;;;;;30.73;12.40;;;-4.50;99.90;;;;;;5095119;28;20180;-60
2021/12/29 01:24:46;;;;;;;34.40;12.57;;;-4.30;99.90;;;;;;5094355;28;20200;-60
2021/12/29 01:27:13;;;;;;;80.30;18.90;;;-4.50;99.90;;;;;;5093878;28;20185;-61
2021/12/29 01:29:40;;;;;;;44.00;14.83;;;-4.50;99.90;;;;;;5093776;28;20239;-60
2021/12/29 01:32:06;;;;;;;36.60;13.63;;;-4.40;99.90;;;;;;5095150;28;20518;-61
2021/12/29 01:34:32;;;;;;;40.80;14.37;;;-4.40;99.90;;;;;;5094655;28;20204;-60
2021/12/29 01:36:59;;;;;;;39.43;15.50;;;-4.50;99.90;;;;;;5094929;28;20184;-61
2021/12/29 01:39:25;;;;;;;45.77;16.87;;;-4.60;99.90;;;;;;5094732;28;20176;-61
2021/12/29 01:41:54;;;;;;;50.87;18.47;;;-4.70;99.90;;;;;;5095036;28;20203;-61
2021/12/29 01:44:24;;;;;;;30.13;13.13;;;-4.80;99.90;;;;;;5095293;28;20189;-61
2021/12/29 01:46:50;;;;;;;36.07;13.03;;;-4.80;99.90;;;;;;5093715;28;20237;-60
2021/12/29 01:49:16;;;;;;;29.27;12.17;;;-4.90;99.90;;;;;;5094976;28;20265;-60
2021/12/29 01:51:51;;;;;;;30.43;11.70;;;-4.90;99.90;;;;;;5077230;28;20281;-61
2021/12/29 01:54:24;;;;;;;34.67;10.20;;;-4.80;99.90;;;;;;5083242;28;20306;-61
2021/12/29 01:56:56;;;;;;;30.97;11.93;;;-4.80;99.90;;;;;;5094822;28;20213;-59
2021/12/29 01:59:24;;;;;;;40.87;12.17;;;-4.90;99.90;;;;;;5094052;28;20175;-61
2021/12/29 02:01:50;;;;;;;36.87;14.00;;;-4.80;99.90;;;;;;5094721;28;20656;-62
2021/12/29 02:04:16;;;;;;;34.57;13.33;;;-4.80;99.90;;;;;;5094828;28;20266;-59
2021/12/29 02:06:42;;;;;;;29.90;11.73;;;-4.90;99.90;;;;;;5093216;28;20265;-61
2021/12/29 02:09:08;;;;;;;33.40;11.93;;;-4.90;99.90;;;;;;5094400;28;20180;-59
2021/12/29 02:11:37;;;;;;;28.57;10.97;;;-4.90;99.90;;;;;;5094410;28;20629;-59
2021/12/29 02:14:07;;;;;;;23.17;9.80;;;-4.90;99.90;;;;;;5092584;28;20566;-60
2021/12/29 02:16:33;;;;;;;31.40;11.10;;;-4.90;99.90;;;;;;5094059;28;20181;-60
2021/12/29 02:19:11;;;;;;;25.17;10.10;;;-4.90;99.90;;;;;;5094563;28;20228;-61
2021/12/29 02:21:38;;;;;;;26.97;11.17;;;-4.90;99.90;;;;;;5094111;28;20248;-61
2021/12/29 02:26:38;;;;;;;24.37;10.53;;;-4.90;99.90;;;;;;5094056;28;20163;-60
2021/12/29 02:29:07;;;;;;;31.63;11.30;;;-4.90;99.90;;;;;;5093770;28;20184;-59
2021/12/29 02:31:34;;;;;;;31.60;11.63;;;-4.90;99.90;;;;;;5093856;28;20173;-61
2021/12/29 02:34:00;;;;;;;33.07;12.03;;;-5.00;99.90;;;;;;5094149;28;20727;-61
2021/12/29 02:36:27;;;;;;;30.60;12.23;;;-5.00;99.90;;;;;;5093665;28;20192;-63
2021/12/29 02:38:55;;;;;;;33.17;13.27;;;-5.00;99.90;;;;;;5093673;28;20204;-61
2021/12/29 02:41:23;;;;;;;28.40;11.87;;;-4.90;99.90;;;;;;5092507;28;20191;-61
2021/12/29 02:43:57;;;;;;;31.13;12.50;;;-4.90;99.90;;;;;;5093908;28;20247;-60
2021/12/29 02:46:24;;;;;;;36.90;13.30;;;-4.90;99.90;;;;;;5094074;28;20182;-60
2021/12/29 02:48:59;;;;;;;27.43;10.40;;;-4.90;99.90;;;;;;5093868;28;20235;-61
2021/12/29 02:51:32;;;;;;;28.70;10.40;;;-5.00;99.90;;;;;;5079062;28;20183;-62
2021/12/29 02:53:59;;;;;;;31.37;10.87;;;-5.00;99.90;;;;;;5079487;28;20209;-61
2021/12/29 02:56:26;;;;;;;28.33;11.43;;;-5.00;99.90;;;;;;5093570;28;20191;-61
2021/12/29 02:58:53;;;;;;;30.57;10.80;;;-5.00;99.90;;;;;;5093408;28;20272;-60
2021/12/29 03:01:20;;;;;;;24.03;10.23;;;-5.10;99.90;;;;;;5093450;28;20259;-60
2021/12/29 03:03:46;;;;;;;29.67;10.40;;;-5.00;99.90;;;;;;5093142;28;20247;-60
2021/12/29 03:06:12;;;;;;;24.53;9.97;;;-5.00;99.90;;;;;;5093703;28;20645;-61
2021/12/29 03:08:39;;;;;;;24.90;9.57;;;-5.00;99.90;;;;;;5092504;28;20204;-60
2021/12/29 03:11:05;;;;;;;29.97;10.27;;;-5.00;99.90;;;;;;5093341;28;20182;-61
2021/12/29 03:13:34;;;;;;;21.57;10.37;;;-5.00;99.90;;;;;;5092603;28;20691;-61
2021/12/29 03:16:00;;;;;;;29.90;11.73;;;-5.10;99.90;;;;;;5093079;28;20201;-61
2021/12/29 03:18:26;;;;;;;17.00;7.43;;;-5.10;99.90;;;;;;5092963;28;20197;-60
2021/12/29 03:20:52;;;;;;;24.83;10.50;;;-5.10;99.90;;;;;;5093253;28;20181;-61
2021/12/29 03:23:18;;;;;;;72.97;14.60;;;-5.10;99.90;;;;;;5092619;28;20312;-62
2021/12/29 03:25:47;;;;;;;77.40;16.33;;;-5.10;99.90;;;;;;5092807;28;20231;-61
2021/12/29 03:28:18;;;;;;;29.07;12.20;;;-4.90;99.90;;;;;;5092985;28;20201;-61
2021/12/29 03:30:48;;;;;;;26.07;10.97;;;-4.70;99.90;;;;;;5092317;28;20193;-61
2021/12/29 03:33:15;;;;;;;29.73;12.40;;;-4.70;99.90;;;;;;5092879;28;20172;-61
2021/12/29 03:35:43;;;;;;;29.87;11.37;;;-4.70;99.90;;;;;;5092443;28;20669;-62
2021/12/29 03:38:13;;;;;;;26.73;10.47;;;-4.90;99.90;;;;;;5092484;28;20260;-61
2021/12/29 03:40:40;;;;;;;25.80;11.00;;;-4.70;99.90;;;;;;5092141;28;20273;-61
2021/12/29 03:43:08;;;;;;;29.03;11.27;;;-4.80;99.90;;;;;;5092456;28;20216;-60
2021/12/29 03:45:37;;;;;;;26.87;11.23;;;-4.90;99.90;;;;;;5090898;28;20185;-60
2021/12/29 03:48:07;;;;;;;30.90;12.07;;;-4.90;99.90;;;;;;5092647;28;20172;-60
2021/12/29 03:50:33;;;;;;;28.33;11.83;;;-4.80;99.90;;;;;;5084890;28;20597;-61
2021/12/29 03:52:59;;;;;;;25.73;10.63;;;-4.90;99.90;;;;;;5070586;28;20273;-61
2021/12/29 03:55:25;;;;;;;29.33;10.93;;;-5.00;99.90;;;;;;5090417;28;20300;-61
2021/12/29 03:57:51;;;;;;;23.47;10.23;;;-5.00;99.90;;;;;;5092516;28;20177;-60
2021/12/29 04:00:18;;;;;;;24.10;10.50;;;-5.00;99.90;;;;;;5092358;28;20548;-61
2021/12/29 04:02:44;;;;;;;20.13;9.37;;;-5.10;99.90;;;;;;5091559;28;20188;-61
2021/12/29 04:05:14;;;;;;;28.87;10.23;;;-5.10;99.90;;;;;;5092125;28;20174;-61
2021/12/29 04:07:40;;;;;;;24.80;8.83;;;-5.10;99.90;;;;;;5091749;28;20184;-61
2021/12/29 04:10:07;;;;;;;22.50;9.53;;;-5.10;99.90;;;;;;5092067;28;20266;-61
2021/12/29 04:12:33;;;;;;;26.10;11.50;;;-5.10;99.90;;;;;;5091355;28;20285;-61
2021/12/29 04:14:59;;;;;;;26.70;10.17;;;-5.20;99.90;;;;;;5091722;28;20212;-61
2021/12/29 04:17:30;;;;;;;22.53;10.47;;;-5.20;99.90;;;;;;5092211;28;20231;-61
2021/12/29 04:22:41;;;;;;;28.93;10.77;;;-5.10;99.90;;;;;;5091276;28;20227;-62
2021/12/29 04:25:07;;;;;;;21.23;8.50;;;-5.10;99.90;;;;;;5091909;28;20544;-61
2021/12/29 04:27:33;;;;;;;26.63;10.30;;;-5.10;99.90;;;;;;5090740;28;20185;-61
2021/12/29 04:29:58;;;;;;;26.63;12.03;;;-5.10;99.90;;;;;;5091725;28;20544;-61
2021/12/29 04:32:24;;;;;;;33.37;12.33;;;-5.10;99.90;;;;;;5091608;28;20191;-64
2021/12/29 04:34:50;;;;;;;29.80;11.47;;;-5.10;99.90;;;;;;5091731;28;20622;-62
2021/12/29 04:37:16;;;;;;;25.80;10.13;;;-5.00;99.90;;;;;;5091510;28;20179;-59
2021/12/29 04:39:42;;;;;;;36.03;12.37;;;-5.00;99.90;;;;;;5091405;28;20192;-60
2021/12/29 04:42:07;;;;;;;23.80;10.60;;;-5.10;99.90;;;;;;5091502;28;20174;-60
2021/12/29 04:44:33;;;;;;;27.83;11.00;;;-5.00;99.90;;;;;;5091495;28;20190;-61
2021/12/29 04:46:59;;;;;;;33.10;11.13;;;-5.10;99.90;;;;;;5091627;28;20217;-61
2021/12/29 04:49:29;;;;;;;31.07;12.50;;;-5.10;99.90;;;;;;5091464;28;20185;-62
2021/12/29 04:52:02;;;;;;;28.47;9.47;;;-5.10;99.90;;;;;;5072891;28;20263;-61
2021/12/29 04:54:31;;;;;;;25.13;10.70;;;-5.10;99.90;;;;;;5081564;28;20294;-61
2021/12/29 04:56:57;;;;;;;27.53;10.93;;;-5.10;99.90;;;;;;5091330;28;20189;-60
2021/12/29 04:59:24;;;;;;;18.60;8.97;;;-5.20;99.90;;;;;;5091392;28;20177;-62
2021/12/29 05:01:50;;;;;;;29.03;10.33;;;-5.20;99.90;;;;;;5091089;28;20196;-60
2021/12/29 05:04:34;;;;;;;34.03;13.00;;;-5.20;99.90;;;;;;5091347;28;20238;-60
2021/12/29 05:09:47;;;;;;;31.77;11.87;;;-5.20;99.90;;;;;;5091042;28;20181;-60
2021/12/29 05:12:12;;;;;;;34.17;13.23;;;-5.20;99.90;;;;;;5091265;28;20178;-60
2021/12/29 05:14:38;;;;;;;37.93;11.67;;;-5.20;99.90;;;;;;5090434;28;20298;-60
2021/12/29 05:17:06;;;;;;;30.33;11.77;;;-5.20;99.90;;;;;;5091245;28;20745;-60
2021/12/29 05:19:33;;;;;;;29.77;12.07;;;-5.20;99.90;;;;;;5090594;28;20181;-61
2021/12/29 05:21:58;;;;;;;30.20;10.73;;;-5.20;99.90;;;;;;5091232;28;20230;-61
2021/12/29 05:24:24;;;;;;;32.40;13.20;;;-5.20;99.90;;;;;;5090718;28;20189;-65
2021/12/29 05:26:50;;;;;;;33.67;14.87;;;-5.20;99.90;;;;;;5090138;28;20619;-60
2021/12/29 05:29:16;;;;;;;35.37;13.10;;;-5.20;99.90;;;;;;5090949;28;20174;-61
2021/12/29 05:31:42;;;;;;;40.40;15.80;;;-5.30;99.90;;;;;;5088962;28;20586;-60
2021/12/29 05:34:07;;;;;;;38.87;14.47;;;-5.30;99.90;;;;;;5092627;28;20303;-61
2021/12/29 05:36:33;;;;;;;45.50;15.63;;;-5.30;99.90;;;;;;5093114;28;20184;-61
2021/12/29 05:38:59;;;;;;;45.47;14.90;;;-5.30;99.90;;;;;;5094168;28;20185;-61
2021/12/29 05:41:25;;;;;;;187.27;28.23;;;-5.30;99.90;;;;;;5093977;28;20204;-62
2021/12/29 05:43:51;;;;;;;87.13;31.87;;;-5.20;99.90;;;;;;5094359;28;20248;-60
2021/12/29 05:46:17;;;;;;;45.77;15.53;;;-4.90;99.90;;;;;;5094514;28;20636;-60
2021/12/29 05:48:43;;;;;;;43.03;15.40;;;-4.80;99.90;;;;;;5093739;28;20232;-61
2021/12/29 05:51:12;;;;;;;47.40;15.13;;;-4.90;99.90;;;;;;5081562;28;20212;-61
2021/12/29 05:53:39;;;;;;;60.87;20.47;;;-5.10;99.90;;;;;;5077052;28;20334;-61
2021/12/29 05:56:05;;;;;;;57.80;18.83;;;-5.00;99.90;;;;;;5094148;28;20217;-60
2021/12/29 05:58:31;;;;;;;48.37;16.30;;;-5.00;99.90;;;;;;5093993;28;20173;-60
2021/12/29 06:00:57;;;;;;;51.40;18.47;;;-5.10;99.90;;;;;;5093704;28;20185;-60
2021/12/29 06:03:23;;;;;;;49.13;18.03;;;-5.20;99.90;;;;;;5092493;28;20650;-61
2021/12/29 06:05:48;;;;;;;44.20;14.70;;;-5.00;99.90;;;;;;5092840;28;20191;-61
2021/12/29 06:08:14;;;;;;;51.03;16.70;;;-5.10;99.90;;;;;;5092617;28;20181;-62
2021/12/29 06:10:41;;;;;;;48.17;15.90;;;-5.20;99.90;;;;;;5093850;28;20538;-61
2021/12/29 06:13:06;;;;;;;52.87;15.33;;;-5.20;99.90;;;;;;5093583;28;20308;-61
2021/12/29 06:15:32;;;;;;;49.23;16.90;;;-5.30;99.90;;;;;;5093639;28;20720;-62
2021/12/29 06:17:58;;;;;;;50.97;17.30;;;-5.30;99.90;;;;;;5093403;28;20660;-63
2021/12/29 06:20:24;;;;;;;40.70;13.70;;;-5.30;99.90;;;;;;5093404;28;20276;-61
2021/12/29 06:22:50;;;;;;;45.00;17.27;;;-5.30;99.90;;;;;;5092905;28;20533;-61
2021/12/29 06:25:17;;;;;;;56.47;17.07;;;-5.30;99.90;;;;;;5093540;28;20199;-62
2021/12/29 06:27:44;;;;;;;57.07;20.07;;;-5.30;99.90;;;;;;5093924;28;20186;-60
2021/12/29 06:30:13;;;;;;;44.00;18.20;;;-5.30;99.90;;;;;;5093546;28;20190;-62
2021/12/29 06:32:40;;;;;;;43.47;16.13;;;-5.20;99.90;;;;;;5093458;28;20186;-61
2021/12/29 06:35:08;;;;;;;49.23;15.13;;;-5.30;99.90;;;;;;5093362;28;20269;-60
2021/12/29 06:37:34;;;;;;;41.23;14.63;;;-5.30;99.90;;;;;;5093049;28;20180;-60
2021/12/29 06:40:00;;;;;;;45.00;16.77;;;-5.20;99.90;;;;;;5094029;28;20176;-62
2021/12/29 06:42:26;;;;;;;41.43;16.97;;;-5.20;99.90;;;;;;5093179;28;20181;-62
2021/12/29 06:44:52;;;;;;;43.27;16.30;;;-5.20;99.90;;;;;;5092712;28;20181;-62
2021/12/29 06:47:18;;;;;;;52.07;18.77;;;-5.20;99.90;;;;;;5093437;28;20184;-62
2021/12/29 06:49:44;;;;;;;35.47;14.70;;;-5.10;99.90;;;;;;5092643;28;20258;-62
2021/12/29 06:52:10;;;;;;;42.70;17.23;;;-5.10;99.90;;;;;;5073215;28;20630;-60
2021/12/29 06:54:37;;;;;;;46.70;16.87;;;-5.10;99.90;;;;;;5084580;28;20210;-60
2021/12/29 06:57:04;;;;;;;41.57;16.07;;;-5.00;99.90;;;;;;5091535;28;20177;-63
2021/12/29 06:59:30;;;;;;;51.33;18.93;;;-5.00;99.90;;;;;;5092580;28;20204;-61
2021/12/29 07:01:56;;;;;;;40.97;14.87;;;-5.00;99.90;;;;;;5093410;28;20181;-62
2021/12/29 07:04:23;;;;;;;48.23;18.00;;;-5.00;99.90;;;;;;5092750;28;20178;-62
2021/12/29 07:06:53;;;;;;;44.93;16.60;;;-4.90;99.90;;;;;;5092870;28;20195;-61
2021/12/29 07:09:19;;;;;;;46.03;17.27;;;-4.80;99.90;;;;;;5092710;28;20192;-61
2021/12/29 07:11:45;;;;;;;43.67;14.57;;;-4.90;99.90;;;;;;5093103;28;20207;-63
2021/12/29 07:14:11;;;;;;;46.20;17.03;;;-4.80;99.90;;;;;;5093738;28;20252;-61
2021/12/29 07:16:39;;;;;;;44.40;15.23;;;-4.70;99.90;;;;;;5094156;28;20184;-60
2021/12/29 07:19:06;;;;;;;45.93;17.50;;;-4.80;99.90;;;;;;5094532;28;20253;-59
2021/12/29 07:21:32;;;;;;;45.83;16.80;;;-4.80;99.90;;;;;;5094300;28;20223;-59
2021/12/29 07:23:58;;;;;;;46.87;16.63;;;-4.80;99.90;;;;;;5094758;28;20185;-61
2021/12/29 07:26:24;;;;;;;43.93;17.87;;;-4.70;99.90;;;;;;5095013;28;20178;-65
2021/12/29 07:28:52;;;;;;;52.50;19.37;;;-4.70;99.90;;;;;;5093903;28;20649;-61
2021/12/29 07:31:19;;;;;;;47.93;17.83;;;-4.70;99.90;;;;;;5092266;28;20174;-60
2021/12/29 07:33:46;;;;;;;45.50;18.07;;;-4.60;99.90;;;;;;5091930;28;20186;-61
2021/12/29 07:36:12;;;;;;;46.10;16.80;;;-4.70;99.90;;;;;;5091855;28;20225;-63
2021/12/29 07:38:41;;;;;;;51.97;16.90;;;-4.50;99.90;;;;;;5091113;28;20186;-62
2021/12/29 07:41:08;;;;;;;50.47;19.10;;;-4.50;99.90;;;;;;5092031;28;20616;-63
2021/12/29 07:43:35;;;;;;;35.97;15.37;;;-4.40;99.90;;;;;;5092064;28;20192;-62
2021/12/29 07:46:02;;;;;;;50.73;19.33;;;-4.40;99.90;;;;;;5092061;28;20187;-61
2021/12/29 07:48:30;;;;;;;54.73;18.97;;;-4.40;99.90;;;;;;5091453;28;20212;-61
2021/12/29 07:50:56;;;;;;;57.53;20.03;;;-4.30;99.90;;;;;;5081144;28;20192;-62
2021/12/29 07:53:22;;;;;;;47.87;17.30;;;-4.30;99.90;;;;;;5072632;28;20210;-62
2021/12/29 07:55:48;;;;;;;41.90;17.70;;;-4.30;99.90;;;;;;5091067;28;20240;-62
2021/12/29 07:58:14;;;;;;;50.73;17.57;;;-4.40;99.90;;;;;;5091621;28;20230;-62
2021/12/29 08:00:40;;;;;;;48.47;19.83;;;-4.40;99.90;;;;;;5091655;28;20176;-62
2021/12/29 08:03:06;;;;;;;44.33;16.73;;;-4.30;99.90;;;;;;5091813;28;20197;-61
2021/12/29 08:05:32;;;;;;;47.50;15.47;;;-4.30;99.90;;;;;;5091435;28;20269;-61
2021/12/29 08:07:57;;;;;;;54.43;19.87;;;-4.20;99.90;;;;;;5090268;28;20272;-62
2021/12/29 08:10:23;;;;;;;136.73;33.37;;;-4.40;99.90;;;;;;5092126;28;20260;-61
2021/12/29 08:12:49;;;;;;;115.63;28.57;;;-4.40;99.90;;;;;;5091347;28;20230;-62
2021/12/29 08:15:15;;;;;;;43.20;14.73;;;-4.30;99.90;;;;;;5090252;28;20653;-61
2021/12/29 08:17:43;;;;;;;47.80;17.40;;;-4.30;99.90;;;;;;5090901;28;20198;-62
2021/12/29 08:20:10;;;;;;;46.33;16.23;;;-4.30;99.90;;;;;;5091478;28;20181;-63
2021/12/29 08:22:35;;;;;;;51.70;18.07;;;-4.50;99.90;;;;;;5090559;28;20190;-62
2021/12/29 08:25:01;;;;;;;46.40;16.90;;;-4.20;99.90;;;;;;5091746;28;20276;-62
2021/12/29 08:27:27;;;;;;;34.83;14.27;;;-4.10;99.90;;;;;;5090912;28;20209;-65
2021/12/29 08:29:53;;;;;;;42.27;15.93;;;-4.30;99.90;;;;;;5089584;28;20276;-61
2021/12/29 08:32:20;;;;;;;56.03;21.30;;;-4.30;99.90;;;;;;5090954;28;20240;-61
2021/12/29 08:34:46;;;;;;;51.83;19.83;;;-4.00;99.90;;;;;;5089576;28;20216;-62
2021/12/29 08:37:12;;;;;;;54.80;20.93;;;-4.10;99.90;;;;;;5090108;28;20259;-62
2021/12/29 08:39:38;;;;;;;53.60;19.80;;;-4.00;99.90;;;;;;5090794;28;20178;-61
2021/12/29 08:42:04;;;;;;;50.50;17.60;;;-4.00;99.90;;;;;;5091145;28;20940;-61
2021/12/29 08:44:29;;;;;;;48.63;19.13;;;-4.00;99.90;;;;;;5090732;28;20191;-62
2021/12/29 08:46:55;;;;;;;58.83;21.53;;;-3.90;99.90;;;;;;5091270;28;20614;-61
2021/12/29 08:49:21;;;;;;;49.77;19.30;;;-3.80;99.90;;;;;;5090874;28;20642;-61
2021/12/29 08:51:47;;;;;;;57.33;21.43;;;-3.90;99.90;;;;;;5072528;28;20209;-63
2021/12/29 08:54:13;;;;;;;57.50;20.10;;;-3.80;99.90;;;;;;5078980;28;20266;-63
2021/12/29 08:56:38;;;;;;;53.93;19.90;;;-3.80;99.90;;;;;;5091053;28;20187;-62
2021/12/29 08:59:06;;;;;;;46.47;18.30;;;-3.70;99.90;;;;;;5089515;28;20192;-62
2021/12/29 09:01:32;;;;;;;50.67;20.50;;;-3.70;99.90;;;;;;5089232;28;20281;-62
2021/12/29 09:03:57;;;;;;;50.10;18.93;;;-3.70;99.90;;;;;;5091092;28;20273;-63
2021/12/29 09:06:23;;;;;;;49.17;19.03;;;-3.70;99.90;;;;;;5090865;28;20244;-63
2021/12/29 09:08:49;;;;;;;60.20;22.23;;;-3.70;99.90;;;;;;5093912;28;20581;-64
2021/12/29 09:11:15;;;;;;;47.50;18.77;;;-3.60;99.90;;;;;;5094787;28;20201;-62
2021/12/29 09:13:41;;;;;;;49.07;18.47;;;-3.50;99.90;;;;;;5094192;28;20231;-61
2021/12/29 09:16:07;;;;;;;52.30;20.43;;;-3.70;99.90;;;;;;5094623;28;20608;-62
2021/12/29 09:18:35;;;;;;;49.23;18.00;;;-3.60;99.90;;;;;;5093845;28;20232;-62
2021/12/29 09:21:07;;;;;;;50.07;20.00;;;-3.60;99.90;;;;;;5094021;28;20257;-62
2021/12/29 09:23:36;;;;;;;59.37;19.53;;;-3.30;99.90;;;;;;5093927;28;20704;-62
2021/12/29 09:26:03;;;;;;;49.43;17.77;;;-3.30;99.90;;;;;;5094261;28;20624;-62
2021/12/29 09:28:29;;;;;;;53.43;20.03;;;-3.20;99.90;;;;;;5094400;28;20187;-63
2021/12/29 09:30:56;;;;;;;46.40;19.90;;;-3.00;99.90;;;;;;5093857;28;20184;-62
2021/12/29 09:33:22;;;;;;;52.40;19.63;;;-3.10;99.90;;;;;;5093996;28;20173;-63
2021/12/29 09:35:52;;;;;;;61.97;22.47;;;-3.10;99.90;;;;;;5093428;28;20291;-63
2021/12/29 09:38:19;;;;;;;53.23;19.93;;;-3.30;99.90;;;;;;5094218;28;20231;-63
2021/12/29 09:40:47;;;;;;;53.00;20.87;;;-3.40;99.90;;;;;;5094059;28;20571;-62
2021/12/29 09:43:13;;;;;;;66.37;22.63;;;-3.50;99.90;;;;;;5094042;28;20183;-62
2021/12/29 09:45:41;;;;;;;52.70;19.87;;;-3.50;99.90;;;;;;5094162;28;20187;-62
2021/12/29 09:48:08;;;;;;;52.53;18.83;;;-3.50;99.90;;;;;;5093621;28;20208;-62
2021/12/29 09:50:34;;;;;;;53.13;17.63;;;-3.60;99.90;;;;;;5085797;28;20225;-62
2021/12/29 09:53:00;;;;;;;62.70;22.67;;;-3.60;99.90;;;;;;5073468;28;20186;-63
2021/12/29 09:55:27;;;;;;;59.33;19.80;;;-3.70;99.90;;;;;;5092210;28;20330;-63
2021/12/29 09:57:56;;;;;;;49.37;17.30;;;-3.70;99.90;;;;;;5093917;28;20255;-62
2021/12/29 10:00:41;;;;;;;62.07;21.90;;;-3.70;99.90;;;;;;5092676;28;20195;-64
2021/12/29 10:03:09;;;;;;;58.60;22.57;;;-3.60;99.90;;;;;;5093449;28;20224;-64
2021/12/29 10:05:37;;;;;;;56.50;22.77;;;-3.50;99.90;;;;;;5093151;28;20615;-61
2021/12/29 10:08:09;;;;;;;48.03;17.33;;;-3.50;99.90;;;;;;5093583;28;20169;-63
2021/12/29 10:10:38;;;;;;;68.30;21.10;;;-3.50;99.90;;;;;;5092220;28;20235;-61
2021/12/29 10:13:06;;;;;;;65.30;21.80;;;-3.40;99.90;;;;;;5091787;28;20235;-62
2021/12/29 10:15:44;;;;;;;59.97;21.80;;;-3.40;99.90;;;;;;5091716;28;20232;-63
2021/12/29 10:18:16;;;;;;;49.33;18.60;;;-3.40;99.90;;;;;;5093443;28;20671;-63
2021/12/29 10:21:04;;;;;;;68.47;23.30;;;-3.40;99.90;;;;;;5092312;28;20368;-62
2021/12/29 10:23:33;;;;;;;57.53;20.63;;;-3.40;99.90;;;;;;5091455;28;20494;-61
2021/12/29 10:26:11;;;;;;;52.80;19.70;;;-3.40;99.90;;;;;;5093632;28;20175;-64
2021/12/29 10:28:41;;;;;;;64.23;22.57;;;-3.30;99.90;;;;;;5093179;28;20239;-63
2021/12/29 10:31:16;;;;;;;68.03;23.60;;;-3.30;99.90;;;;;;5092921;28;20182;-62
2021/12/29 10:33:45;;;;;;;66.70;23.33;;;-3.40;99.90;;;;;;5092849;28;20270;-62
2021/12/29 10:36:29;;;;;;;77.03;23.70;;;-3.50;99.90;;;;;;5092399;28;20242;-62
2021/12/29 10:39:03;;;;;;;66.93;24.00;;;-3.40;99.90;;;;;;5093208;28;20267;-62
2021/12/29 10:41:32;;;;;;;62.57;20.60;;;-3.40;99.90;;;;;;5091273;28;20197;-63
2021/12/29 10:44:05;;;;;;;73.47;24.23;;;-3.30;99.90;;;;;;5092967;28;20175;-63
2021/12/29 10:46:34;;;;;;;64.90;22.83;;;-3.40;99.90;;;;;;5092656;28;20251;-62
2021/12/29 10:49:04;;;;;;;66.87;24.57;;;-3.30;99.90;;;;;;5093302;28;20188;-64
2021/12/29 10:51:33;;;;;;;63.13;23.03;;;-3.20;99.90;;;;;;5077088;28;20257;-62
2021/12/29 10:54:14;;;;;;;70.27;23.17;;;-3.30;99.90;;;;;;5078976;28;20195;-62
2021/12/29 10:56:44;;;;;;;72.70;23.83;;;-3.30;99.90;;;;;;5092966;28;20216;-62
2021/12/29 10:59:22;;;;;;;56.67;18.10;;;-3.40;99.90;;;;;;5092730;28;20180;-63
2021/12/29 11:01:49;;;;;;;73.57;26.47;;;-3.30;99.90;;;;;;5092510;28;20178;-62
2021/12/29 11:04:16;;;;;;;76.37;26.97;;;-3.30;99.90;;;;;;5092384;28;20187;-62
2021/12/29 11:06:44;;;;;;;76.20;26.40;;;-3.40;99.90;;;;;;5092452;28;20274;-62
2021/12/29 11:09:11;;;;;;;74.47;26.97;;;-3.30;99.90;;;;;;5091954;28;20279;-63
2021/12/29 11:11:40;;;;;;;75.27;26.33;;;-3.30;99.90;;;;;;5091970;28;20457;-63
2021/12/29 11:14:25;;;;;;;79.87;27.47;;;-3.20;99.90;;;;;;5092099;28;20231;-61
2021/12/29 11:17:22;;;;;;;65.30;24.70;;;-3.20;99.90;;;;;;5091047;28;20237;-63
2021/12/29 11:19:58;;;;;;;70.50;27.60;;;-3.20;99.90;;;;;;5091578;28;20199;-62
2021/12/29 11:22:28;;;;;;;78.93;27.40;;;-3.20;99.90;;;;;;5092455;28;20175;-61
2021/12/29 11:25:03;;;;;;;68.17;23.80;;;-3.60;99.90;;;;;;5092219;28;20251;-63
2021/12/29 11:27:32;;;;;;;72.00;26.97;;;-3.60;99.90;;;;;;5092102;28;20162;-62
2021/12/29 11:30:04;;;;;;;75.67;26.67;;;-3.70;99.90;;;;;;5090958;28;20273;-62
2021/12/29 11:32:34;;;;;;;77.73;28.00;;;-3.60;99.90;;;;;;5091563;28;20167;-64
2021/12/29 11:35:12;;;;;;;78.27;27.10;;;-3.40;99.90;;;;;;5091913;28;20200;-63
2021/12/29 11:37:42;;;;;;;85.83;28.67;;;-3.30;99.90;;;;;;5092097;28;20165;-62
2021/12/29 11:40:09;;;;;;;73.73;26.77;;;-3.40;99.90;;;;;;5092108;28;20174;-64
2021/12/29 11:42:35;;;;;;;75.53;28.37;;;-3.50;99.90;;;;;;5090967;28;20650;-62
2021/12/29 11:45:01;;;;;;;66.57;24.67;;;-3.70;99.90;;;;;;5090988;28;20193;-63
2021/12/29 11:47:27;;;;;;;72.50;26.33;;;-3.70;99.90;;;;;;5089738;28;20290;-62
2021/12/29 11:49:53;;;;;;;77.93;28.23;;;-3.90;99.90;;;;;;5088979;28;20208;-62
2021/12/29 11:52:38;;;;;;;72.63;26.47;;;-3.80;99.90;;;;;;5071184;28;20217;-64
2021/12/29 11:55:12;;;;;;;79.33;27.67;;;-3.70;99.90;;;;;;5086928;28;20294;-62
2021/12/29 11:57:38;;;;;;;71.20;27.43;;;-3.70;99.90;;;;;;5091676;28;20181;-63
2021/12/29 12:00:19;;;;;;;74.90;28.63;;;-3.60;99.90;;;;;;5091472;28;20648;-65
2021/12/29 12:02:48;;;;;;;81.53;27.13;;;-3.50;99.90;;;;;;5091513;28;20193;-63
2021/12/29 12:05:33;;;;;;;76.70;26.13;;;-3.70;99.90;;;;;;5091961;28;20183;-63
2021/12/29 12:08:19;;;;;;;70.50;25.00;;;-3.90;99.90;;;;;;5091501;28;20212;-62
2021/12/29 12:10:45;;;;;;;67.87;25.23;;;-3.90;99.90;;;;;;5091129;28;20178;-64
2021/12/29 12:13:29;;;;;;;63.33;22.93;;;-4.00;99.90;;;;;;5090061;28;20239;-62
2021/12/29 12:16:15;;;;;;;77.33;26.13;;;-4.10;99.90;;;;;;5091439;28;20203;-64
2021/12/29 12:18:46;;;;;;;66.23;24.00;;;-4.30;99.90;;;;;;5091398;28;20184;-63
2021/12/29 12:21:24;;;;;;;74.63;27.00;;;-4.20;99.90;;;;;;5091551;28;20190;-64
2021/12/29 12:23:51;;;;;;;67.47;24.80;;;-4.10;99.90;;;;;;5090846;28;20193;-62
2021/12/29 12:26:22;;;;;;;68.13;25.33;;;-4.10;99.90;;;;;;5091101;28;20194;-62
2021/12/29 12:28:50;;;;;;;69.70;21.53;;;-4.00;99.90;;;;;;5090993;28;20197;-63
2021/12/29 12:31:31;;;;;;;81.57;28.10;;;-3.90;99.90;;;;;;5091189;28;20186;-61
2021/12/29 12:34:26;;;;;;;74.07;25.47;;;-4.00;99.90;;;;;;5089364;28;20177;-62
2021/12/29 12:36:52;;;;;;;75.13;28.27;;;-4.00;99.90;;;;;;5090494;28;20293;-61
2021/12/29 12:39:19;;;;;;;79.63;31.10;;;-4.10;99.90;;;;;;5091022;28;20270;-62
2021/12/29 12:41:50;;;;;;;64.20;23.83;;;-4.10;99.90;;;;;;5090363;28;20607;-62